GLD1794 NWWD-NWWB
Flight info
| Callsign | GLD1794 |
|---|---|
| Flight time | 0h 19m |
| Altitude | 5000 |
| Route | 211243S1645244E 211926S1645948E DCT 212049S1650924E |
| Aircraft | BE58/L-SDFGRY/C |
Departure
| Time | 2026-05-09 16:49 |
|---|---|
| Airport | Koné Airport (NWWD) |
Arrival
| Time | 2026-05-09 17:08 |
|---|---|
| Airport | Bourail - Poé Airport (NWWB) |
| Time | Latitude | Longitude | Altitude | Speed | Heading |
|---|---|---|---|---|---|
| 2026-05-09 16:37 | -21.05168 | 164.83671 | -3 ft | 0 kts | 92° |
| 2026-05-09 16:46 | -21.05168 | 164.83674 | -3 ft | 2 kts | 92° |
| 2026-05-09 16:47 | -21.05200 | 164.83695 | -4 ft | 10 kts | 202° |
| 2026-05-09 16:47 | -21.05266 | 164.83682 | -6 ft | 10 kts | 190° |
| 2026-05-09 16:47 | -21.05315 | 164.83650 | -6 ft | 8 kts | 263° |
| 2026-05-09 16:47 | -21.05303 | 164.83557 | -4 ft | 15 kts | 281° |
| 2026-05-09 16:48 | -21.05280 | 164.83431 | -2 ft | 22 kts | 281° |
| 2026-05-09 16:48 | -21.05274 | 164.83337 | -1 ft | 4 kts | 97° |
| 2026-05-09 16:48 | -21.05274 | 164.83365 | -2 ft | 0 kts | 101° |
| 2026-05-09 16:48 | -21.05298 | 164.83505 | -3 ft | 62 kts | 101° |
| 2026-05-09 16:49 | -21.05409 | 164.84213 | 71 ft | 116 kts | 99° |
| 2026-05-09 16:49 | -21.05563 | 164.85108 | 423 ft | 128 kts | 103° |
| 2026-05-09 16:49 | -21.05726 | 164.86075 | 812 ft | 133 kts | 102° |
| 2026-05-09 16:50 | -21.06826 | 164.87538 | 1543 ft | 144 kts | 162° |
| 2026-05-09 16:50 | -21.07792 | 164.87898 | 1913 ft | 150 kts | 160° |
| 2026-05-09 16:50 | -21.08779 | 164.88312 | 2290 ft | 155 kts | 158° |
| 2026-05-09 16:50 | -21.09774 | 164.88771 | 2673 ft | 156 kts | 158° |
| 2026-05-09 16:51 | -21.10777 | 164.89249 | 3042 ft | 159 kts | 157° |
| 2026-05-09 16:51 | -21.11795 | 164.89741 | 3402 ft | 161 kts | 157° |
| 2026-05-09 16:51 | -21.12823 | 164.90234 | 3762 ft | 162 kts | 157° |
| 2026-05-09 16:51 | -21.13854 | 164.90732 | 4132 ft | 161 kts | 157° |
| 2026-05-09 16:52 | -21.14857 | 164.91216 | 4497 ft | 156 kts | 157° |
| 2026-05-09 16:52 | -21.15819 | 164.91679 | 4851 ft | 152 kts | 157° |
| 2026-05-09 16:52 | -21.16809 | 164.92155 | 4995 ft | 164 kts | 157° |
| 2026-05-09 16:52 | -21.17898 | 164.92678 | 5009 ft | 177 kts | 157° |
| 2026-05-09 16:53 | -21.19056 | 164.93234 | 5009 ft | 187 kts | 156° |
| 2026-05-09 16:53 | -21.20260 | 164.93816 | 5007 ft | 192 kts | 156° |
| 2026-05-09 16:53 | -21.21494 | 164.94411 | 5005 ft | 197 kts | 156° |
| 2026-05-09 16:53 | -21.22748 | 164.95016 | 5007 ft | 200 kts | 156° |
| 2026-05-09 16:54 | -21.24023 | 164.95629 | 5007 ft | 201 kts | 157° |
| 2026-05-09 16:54 | -21.25303 | 164.96247 | 5004 ft | 202 kts | 156° |
| 2026-05-09 16:54 | -21.26588 | 164.96866 | 5006 ft | 202 kts | 157° |
| 2026-05-09 16:54 | -21.27872 | 164.97486 | 5005 ft | 203 kts | 157° |
| 2026-05-09 16:55 | -21.29157 | 164.98106 | 5005 ft | 202 kts | 157° |
| 2026-05-09 16:55 | -21.30444 | 164.98727 | 5007 ft | 203 kts | 156° |
| 2026-05-09 16:55 | -21.31623 | 164.99552 | 5001 ft | 205 kts | 136° |
| 2026-05-09 16:55 | -21.32430 | 165.00805 | 5000 ft | 206 kts | 115° |
| 2026-05-09 16:56 | -21.32774 | 165.02294 | 5001 ft | 206 kts | 99° |
| 2026-05-09 16:56 | -21.32987 | 165.03816 | 5003 ft | 207 kts | 100° |
| 2026-05-09 16:56 | -21.33208 | 165.05338 | 5006 ft | 207 kts | 100° |
| 2026-05-09 16:56 | -21.33429 | 165.06869 | 5006 ft | 208 kts | 100° |
| 2026-05-09 16:57 | -21.33646 | 165.08383 | 4997 ft | 208 kts | 100° |
| 2026-05-09 16:57 | -21.33868 | 165.09917 | 4997 ft | 208 kts | 100° |
| 2026-05-09 16:57 | -21.34090 | 165.11461 | 4936 ft | 212 kts | 100° |
| 2026-05-09 16:57 | -21.34316 | 165.13016 | 4816 ft | 206 kts | 100° |
| 2026-05-09 16:58 | -21.34528 | 165.14494 | 4682 ft | 195 kts | 101° |
| 2026-05-09 16:58 | -21.34954 | 165.15823 | 4599 ft | 186 kts | 122° |
| 2026-05-09 16:58 | -21.35464 | 165.16552 | 4566 ft | 183 kts | 135° |
| 2026-05-09 16:58 | -21.36345 | 165.17546 | 4470 ft | 185 kts | 135° |
| 2026-05-09 16:59 | -21.37245 | 165.18578 | 4350 ft | 191 kts | 135° |
| 2026-05-09 16:59 | -21.38153 | 165.19615 | 4228 ft | 190 kts | 135° |
| 2026-05-09 16:59 | -21.39062 | 165.20652 | 4098 ft | 191 kts | 135° |
| 2026-05-09 16:59 | -21.39972 | 165.21692 | 3973 ft | 191 kts | 135° |
| 2026-05-09 17:00 | -21.40882 | 165.22730 | 3844 ft | 191 kts | 135° |
| 2026-05-09 17:00 | -21.41788 | 165.23766 | 3722 ft | 191 kts | 135° |
| 2026-05-09 17:00 | -21.42705 | 165.24811 | 3592 ft | 193 kts | 135° |
| 2026-05-09 17:00 | -21.43622 | 165.25858 | 3465 ft | 192 kts | 135° |
| 2026-05-09 17:01 | -21.44529 | 165.26898 | 3337 ft | 191 kts | 135° |
| 2026-05-09 17:01 | -21.45435 | 165.27932 | 3208 ft | 190 kts | 135° |
| 2026-05-09 17:01 | -21.46340 | 165.28964 | 3078 ft | 189 kts | 135° |
| 2026-05-09 17:01 | -21.47226 | 165.29980 | 2961 ft | 190 kts | 135° |
| 2026-05-09 17:02 | -21.48132 | 165.31012 | 2827 ft | 190 kts | 134° |
| 2026-05-09 17:02 | -21.49031 | 165.32043 | 2712 ft | 188 kts | 135° |
| 2026-05-09 17:02 | -21.49918 | 165.33074 | 2694 ft | 186 kts | 136° |
| 2026-05-09 17:02 | -21.51039 | 165.33655 | 2693 ft | 179 kts | 174° |
| 2026-05-09 17:03 | -21.52267 | 165.33684 | 2570 ft | 171 kts | 182° |
| 2026-05-09 17:04 | -21.59815 | 165.33496 | 1678 ft | 152 kts | 181° |
| 2026-05-09 17:05 | -21.60865 | 165.33521 | 1553 ft | 151 kts | 166° |
| 2026-05-09 17:05 | -21.61639 | 165.34236 | 1430 ft | 154 kts | 116° |
| 2026-05-09 17:05 | -21.61857 | 165.35346 | 1397 ft | 150 kts | 102° |
| 2026-05-09 17:05 | -21.62019 | 165.36511 | 1333 ft | 167 kts | 102° |
| 2026-05-09 17:06 | -21.62217 | 165.37798 | 1190 ft | 182 kts | 103° |
| 2026-05-09 17:06 | -21.62420 | 165.39046 | 1001 ft | 156 kts | 102° |
| 2026-05-09 17:06 | -21.62583 | 165.40114 | 793 ft | 133 kts | 102° |
| 2026-05-09 17:06 | -21.62721 | 165.41004 | 577 ft | 115 kts | 101° |
| 2026-05-09 17:07 | -21.62560 | 165.41790 | 448 ft | 112 kts | 45° |
| 2026-05-09 17:07 | -21.62083 | 165.41963 | 288 ft | 114 kts | 349° |
| 2026-05-09 17:07 | -21.61467 | 165.41127 | 148 ft | 111 kts | 292° |
| 2026-05-09 17:07 | -21.61158 | 165.40399 | 44 ft | 103 kts | 283° |
| 2026-05-09 17:08 | -21.60976 | 165.39775 | -5 ft | 59 kts | 289° |
| 2026-05-09 17:08 | -21.60914 | 165.39572 | -3 ft | 8 kts | 115° |
| 2026-05-09 17:08 | -21.60935 | 165.39636 | -4 ft | 11 kts | 107° |
| 2026-05-09 17:09 | -21.60961 | 165.39723 | -5 ft | 13 kts | 105° |
| 2026-05-09 17:09 | -21.60989 | 165.39824 | -5 ft | 15 kts | 106° |
| 2026-05-09 17:09 | -21.61024 | 165.39937 | -8 ft | 16 kts | 103° |
| 2026-05-09 17:09 | -21.61058 | 165.40054 | -9 ft | 16 kts | 104° |
| 2026-05-09 17:10 | -21.61025 | 165.40127 | -8 ft | 11 kts | 17° |
| 2026-05-09 17:10 | -21.60982 | 165.40153 | -6 ft | 2 kts | 302° |
| 2026-05-09 17:10 | -21.60982 | 165.40151 | -6 ft | 0 kts | 286° |